createdAt,value
2023-03-12T15:21:36.544Z,93.31
2023-03-12T15:26:38.315Z,89.85
2023-03-12T15:29:26.126Z,87.82
2023-03-12T15:31:56.132Z,87.82
2023-03-12T15:34:37.916Z,87.56
2023-03-12T15:37:24.518Z,86.59
2023-03-12T15:39:52.551Z,85.96
2023-03-12T15:42:23.532Z,86.01
2023-03-12T15:45:16.178Z,85.51
2023-03-12T15:47:42.812Z,85.87
2023-03-12T15:50:23.478Z,85.95
2023-03-12T15:53:16.121Z,86.86
2023-03-12T15:55:43.510Z,86.20
2023-03-12T15:58:31.997Z,85.16
2023-03-12T16:01:08.548Z,85.45
2023-03-12T16:03:35.451Z,85.36
2023-03-12T16:06:02.313Z,86.26
2023-03-12T16:08:41.852Z,85.82
2023-03-12T16:11:20.726Z,85.69
2023-03-12T16:13:49.826Z,83.98
2023-03-12T16:16:16.887Z,83.57
2023-03-12T16:18:44.004Z,82.33
2023-03-12T16:21:10.955Z,82.40
2023-03-12T16:23:37.857Z,81.06
2023-03-12T16:26:06.237Z,80.49
2023-03-12T16:28:35.666Z,81.15
2023-03-12T16:31:02.698Z,81.01
2023-03-12T16:33:29.155Z,82.00
2023-03-12T16:35:55.976Z,82.18
2023-03-12T16:38:22.604Z,82.40
2023-03-12T16:40:51.605Z,82.98
2023-03-12T16:43:25.794Z,82.62
2023-03-12T16:45:54.337Z,82.85
2023-03-12T16:48:24.351Z,82.55
2023-03-12T16:51:02.129Z,82.34
2023-03-12T16:53:28.711Z,81.71
2023-03-12T16:55:58.634Z,81.58
2023-03-12T16:58:34.237Z,81.88
2023-03-12T17:01:00.792Z,81.98
2023-03-12T17:03:38.054Z,81.04
2023-03-12T17:06:06.922Z,80.77
2023-03-12T17:08:33.577Z,79.89
2023-03-12T17:11:00.291Z,79.06
2023-03-12T17:13:28.535Z,78.73
2023-03-12T17:15:55.876Z,78.76
2023-03-12T17:18:22.770Z,77.71
2023-03-12T17:20:51.606Z,78.33
2023-03-12T17:23:18.636Z,78.29
2023-03-12T17:25:45.567Z,78.13
2023-03-12T17:28:12.636Z,77.86
2023-03-12T17:30:39.324Z,78.44
2023-03-12T17:33:08.989Z,78.32
2023-03-12T17:35:36.259Z,78.78
2023-03-12T17:38:03.598Z,78.78
2023-03-12T17:40:30.095Z,79.04
2023-03-12T17:42:56.594Z,79.42
2023-03-12T17:45:23.966Z,79.54
2023-03-12T17:47:50.456Z,80.44
2023-03-12T17:50:17.610Z,81.18
2023-03-12T17:52:44.457Z,81.45
2023-03-12T17:55:11.850Z,80.53
2023-03-12T17:57:38.890Z,80.97
2023-03-12T18:00:11.546Z,80.94
2023-03-12T18:02:40.028Z,81.05
2023-03-12T18:05:07.861Z,80.34
2023-03-12T18:07:34.521Z,80.90
2023-03-12T18:10:01.113Z,80.98
2023-03-12T18:12:27.641Z,80.86
2023-03-12T18:14:54.181Z,80.88
2023-03-12T18:17:24.770Z,81.65
2023-03-12T18:19:51.346Z,81.64
2023-03-12T18:22:22.375Z,81.40
2023-03-12T18:24:48.935Z,82.23
2023-03-12T18:27:18.403Z,82.08
2023-03-12T18:29:50.919Z,81.72
2023-03-12T18:32:21.987Z,81.73
2023-03-12T18:34:48.620Z,81.81
2023-03-12T18:37:17.839Z,81.91
2023-03-12T18:40:13.108Z,83.05
2023-03-12T18:42:44.491Z,82.76
2023-03-12T18:45:19.535Z,83.14
2023-03-12T18:47:55.208Z,82.97
2023-03-12T18:50:59.717Z,83.52
2023-03-12T18:53:58.345Z,83.91
2023-03-12T18:57:13.485Z,83.79
2023-03-12T19:00:06.078Z,83.66
2023-03-12T19:05:14.510Z,84.60
2023-03-12T19:07:41.590Z,85.24
2023-03-12T19:10:09.041Z,85.53
2023-03-12T19:12:50.872Z,86.10
2023-03-12T19:15:18.843Z,85.94
2023-03-12T19:17:45.408Z,85.86
2023-03-12T19:20:13.083Z,85.67
2023-03-12T19:22:39.858Z,86.66
2023-03-12T19:25:06.830Z,86.19
2023-03-12T19:27:33.390Z,86.69
2023-03-12T19:29:59.842Z,87.08
2023-03-12T19:32:33.250Z,86.23
2023-03-12T19:35:09.152Z,86.72
2023-03-12T19:37:35.605Z,86.27
2023-03-12T19:40:02.064Z,85.97
2023-03-12T19:42:28.660Z,87.18
2023-03-12T19:44:55.351Z,86.80
2023-03-12T19:47:22.329Z,87.09
2023-03-12T19:49:48.878Z,87.24
2023-03-12T19:52:15.512Z,86.62
2023-03-12T19:54:44.045Z,86.69
2023-03-12T19:57:13.527Z,87.05
2023-03-12T19:59:40.193Z,87.77
2023-03-12T20:02:06.814Z,86.56
2023-03-12T20:04:33.344Z,86.69
2023-03-12T20:06:59.772Z,86.50
2023-03-12T20:09:26.283Z,85.68
2023-03-12T20:11:52.752Z,85.29
2023-03-12T20:14:19.254Z,85.33
2023-03-12T20:16:50.958Z,84.61
2023-03-12T20:19:17.579Z,84.01
2023-03-12T20:21:44.242Z,84.31
2023-03-12T20:24:11.307Z,84.10
2023-03-12T20:26:41.316Z,83.37
2023-03-12T20:29:07.926Z,82.91
2023-03-12T20:31:34.539Z,82.30
2023-03-12T20:34:01.325Z,82.36
2023-03-12T20:36:27.922Z,81.36
2023-03-12T20:38:54.460Z,82.09
2023-03-12T20:41:21.090Z,81.47
2023-03-12T20:43:49.612Z,81.73
2023-03-12T20:46:16.390Z,81.30
2023-03-12T20:48:42.904Z,81.44
2023-03-12T20:51:09.371Z,81.15
2023-03-12T20:53:36.028Z,80.62
2023-03-12T20:56:02.460Z,80.91
2023-03-12T20:58:28.914Z,80.34
2023-03-12T21:00:55.484Z,79.84
2023-03-12T21:03:22.640Z,80.35
2023-03-12T21:05:57.500Z,79.69
2023-03-12T21:08:24.956Z,80.09
2023-03-12T21:10:52.300Z,80.54
2023-03-12T21:13:20.825Z,79.83
2023-03-12T21:15:47.862Z,80.28
2023-03-12T21:18:14.389Z,80.39
2023-03-12T21:20:41.768Z,79.79
2023-03-12T21:23:09.566Z,79.94
2023-03-12T21:25:37.733Z,80.03
2023-03-12T21:28:05.785Z,80.10
2023-03-12T21:30:33.023Z,80.79
2023-03-12T21:33:01.291Z,80.47
2023-03-12T21:35:28.656Z,80.61
2023-03-12T21:37:59.079Z,81.02
2023-03-12T21:40:25.501Z,81.06
2023-03-12T21:42:52.010Z,81.06
2023-03-12T21:45:18.960Z,81.39
2023-03-12T21:47:45.361Z,82.01
2023-03-12T21:50:11.951Z,81.97
2023-03-12T21:52:47.638Z,81.95
2023-03-12T21:55:14.829Z,81.80
2023-03-12T21:57:41.534Z,81.25
2023-03-12T22:00:13.797Z,81.87
2023-03-12T22:02:42.270Z,81.45
2023-03-12T22:05:09.279Z,80.87
2023-03-12T22:07:35.820Z,80.78
2023-03-12T22:10:03.588Z,81.09
2023-03-12T22:12:30.059Z,81.15
2023-03-12T22:14:56.520Z,81.83
2023-03-12T22:17:23.029Z,81.72
2023-03-12T22:19:49.502Z,80.90
2023-03-12T22:22:15.985Z,80.89
2023-03-12T22:24:42.788Z,80.87
2023-03-12T22:27:12.233Z,81.60
2023-03-12T22:29:38.633Z,80.86
2023-03-12T22:32:05.304Z,81.17
2023-03-12T22:34:31.892Z,82.06
2023-03-12T22:36:58.385Z,81.74
2023-03-12T22:39:24.829Z,81.60
2023-03-12T22:41:52.615Z,80.76
2023-03-12T22:44:19.245Z,80.85
2023-03-12T22:46:45.711Z,81.06
2023-03-12T22:49:12.332Z,81.07
2023-03-12T22:51:38.874Z,80.54
2023-03-12T22:54:05.497Z,80.38
2023-03-12T22:56:31.912Z,81.35
2023-03-12T22:58:58.964Z,81.45
2023-03-12T23:01:25.774Z,82.05
2023-03-12T23:03:52.389Z,80.92
2023-03-12T23:06:21.000Z,81.36
2023-03-12T23:08:48.162Z,80.92
2023-03-12T23:11:15.725Z,81.44
2023-03-12T23:13:44.607Z,80.86
2023-03-12T23:16:17.255Z,81.11
2023-03-12T23:18:44.624Z,80.51
2023-03-12T23:21:15.327Z,79.50
2023-03-12T23:23:44.822Z,79.71
2023-03-12T23:26:16.731Z,79.98
2023-03-12T23:28:46.798Z,79.87
2023-03-12T23:31:14.375Z,79.73
2023-03-12T23:33:41.585Z,79.37
2023-03-12T23:36:12.011Z,79.12
2023-03-12T23:38:38.534Z,79.13
2023-03-12T23:41:07.525Z,79.04
2023-03-12T23:43:34.264Z,78.51
2023-03-12T23:46:02.430Z,78.62
2023-03-12T23:48:30.957Z,78.44
2023-03-12T23:51:31.171Z,78.49
2023-03-12T23:54:00.448Z,78.45
2023-03-12T23:56:32.096Z,78.02
2023-03-12T23:58:58.626Z,77.90
